.
WxDataArchive / Data Records for 2009-04-26
2009-04-25 April 2009 2009-04-27

Data Records for Sunday, 26 April 2009

Time	Temp	Chill	HIndex	Humid	Dewpt	 Wind 	HiWind	WindDir	Rain 	Barom 
-----	----	-----	------	-----	-----	------	------	-------	-----	----- 
00:00	71.1	71.1	71.1	46	49.3	0	2	248	0.00	30.117 
00:05	70.8	70.8	70.8	47	49.6	0	0	---	0.00	30.117 
00:10	70.1	70.1	70.1	49	50.0	0	1	248	0.00	30.117 
00:15	69.4	69.4	69.4	50	49.9	0	1	248	0.00	30.117 
00:20	68.9	68.9	68.9	52	50.5	0	2	248	0.00	30.117 
00:25	68.4	68.4	68.4	52	50.1	0	1	248	0.00	30.117 
00:30	68.1	68.1	68.1	53	50.3	0	1	248	0.00	30.116 
00:35	67.8	67.8	67.8	54	50.5	0	0	---	0.00	30.116 
00:40	67.4	67.4	67.4	55	50.7	0	1	248	0.00	30.116 
00:45	67.1	67.1	67.1	56	50.9	0	0	---	0.00	30.114 
00:50	66.8	66.8	66.8	57	51.1	0	1	248	0.00	30.114 
00:55	66.4	66.4	66.4	57	50.7	0	0	---	0.00	30.114 
01:00	66.3	66.3	66.3	58	51.1	0	1	248	0.00	30.114 
01:05	66.0	66.0	66.0	58	50.8	0	0	---	0.00	30.114 
01:10	65.8	65.8	65.8	58	50.6	0	0	---	0.00	30.114 
01:15	65.5	65.5	65.5	59	50.8	0	0	---	0.00	30.112 
01:20	65.3	65.3	65.3	59	50.6	0	0	---	0.00	30.112 
01:25	65.0	65.0	65.0	59	50.3	0	0	---	0.00	30.112 
01:30	64.8	64.8	64.8	60	50.6	0	0	---	0.00	30.115 
01:35	64.7	64.7	64.7	60	50.5	0	0	---	0.00	30.115 
01:40	64.3	64.3	64.3	60	50.1	0	0	---	0.00	30.115 
01:45	64.2	64.2	64.2	60	50.0	0	1	248	0.00	30.114 
01:50	64.2	64.2	64.2	60	50.0	0	0	---	0.00	30.114 
01:55	64.2	64.2	64.2	60	50.0	0	1	248	0.00	30.114 
02:00	64.2	64.2	64.2	60	50.0	0	1	248	0.00	30.116 
02:05	64.3	64.3	64.3	59	49.7	0	1	248	0.00	30.116 
02:10	64.5	64.5	64.5	59	49.8	0	1	248	0.00	30.116 
02:15	64.7	64.7	64.7	59	50.0	0	1	248	0.00	30.113 
02:20	64.7	64.7	64.7	59	50.0	0	1	248	0.00	30.113 
02:25	64.7	64.7	64.7	59	50.0	0	0	---	0.00	30.113 
02:30	64.7	64.7	64.7	60	50.5	0	1	248	0.00	30.112 
02:35	64.7	64.7	64.7	60	50.5	0	1	248	0.00	30.112 
02:40	64.7	64.7	64.7	60	50.5	0	1	248	0.00	30.112 
02:45	64.7	64.7	64.7	60	50.5	0	1	248	0.00	30.110 
02:50	64.7	64.7	64.7	60	50.5	0	2	248	0.00	30.110 
02:55	64.7	64.7	64.7	60	50.5	0	1	248	0.00	30.110 
03:00	64.7	64.7	64.7	60	50.5	0	1	248	0.00	30.109 
03:05	64.8	64.8	64.8	60	50.6	0	1	248	0.00	30.109 
03:10	65.0	65.0	65.0	60	50.8	0	1	248	0.00	30.109 
03:15	65.0	65.0	65.0	60	50.8	0	2	248	0.00	30.107 
03:20	65.0	65.0	65.0	60	50.8	0	2	248	0.00	30.107 
03:25	65.2	65.2	65.2	60	51.0	0	1	248	0.00	30.107 
03:30	65.3	65.3	65.3	60	51.1	0	1	248	0.00	30.108 
03:35	65.3	65.3	65.3	60	51.1	0	1	248	0.00	30.108 
03:40	65.3	65.3	65.3	60	51.1	0	2	248	0.00	30.108 
03:45	65.2	65.2	65.2	60	51.0	0	2	248	0.00	30.109 
03:50	65.0	65.0	65.0	60	50.8	0	3	248	0.00	30.109 
03:55	65.0	65.0	65.0	61	51.2	0	1	248	0.00	30.109 
04:00	64.8	64.8	64.8	61	51.0	0	1	248	0.00	30.111 
04:05	64.8	64.8	64.8	61	51.0	0	1	248	0.00	30.111 
04:10	64.8	64.8	64.8	62	51.5	0	1	248	0.00	30.111 
04:15	64.7	64.7	64.7	62	51.4	0	1	248	0.00	30.110 
04:20	64.3	64.3	64.3	62	51.0	0	2	248	0.00	30.110 
04:25	64.2	64.2	64.2	62	50.9	0	1	248	0.00	30.110 
04:30	64.0	64.0	64.0	63	51.1	0	1	248	0.00	30.115 
04:35	63.9	63.9	63.9	63	51.1	0	1	248	0.00	30.115 
04:40	63.9	63.9	63.9	63	51.1	0	2	248	0.00	30.115 
04:45	64.0	64.0	64.0	63	51.1	0	1	248	0.00	30.118 
04:50	64.2	64.2	64.2	62	50.9	0	2	248	0.00	30.118 
04:55	64.3	64.3	64.3	63	51.4	0	1	248	0.00	30.118 
05:00	64.5	64.5	64.5	62	51.2	0	2	248	0.00	30.122 
05:05	64.5	64.5	64.5	63	51.6	0	3	248	0.00	30.122 
05:10	64.5	64.5	64.5	62	51.2	0	2	248	0.00	30.122 
05:15	64.7	64.7	64.7	62	51.4	0	3	248	0.00	30.119 
05:20	64.8	64.8	64.8	62	51.5	0	1	248	0.00	30.119 
05:25	64.8	64.8	64.8	62	51.5	1	4	248	0.00	30.119 
05:30	64.8	64.8	64.8	62	51.5	0	4	248	0.00	30.122 
05:35	64.7	64.7	64.7	62	51.4	0	3	248	0.00	30.122 
05:40	64.5	64.5	64.5	63	51.6	0	1	248	0.00	30.122 
05:45	64.3	64.3	64.3	63	51.4	0	2	248	0.00	30.124 
05:50	64.2	64.2	64.2	63	51.3	0	1	248	0.00	30.124 
05:55	64.2	64.2	64.2	64	51.8	0	2	248	0.00	30.124 
06:00	64.2	64.2	64.2	64	51.8	0	3	248	0.00	30.126 
06:05	64.3	64.3	64.3	64	51.9	0	2	248	0.00	30.126 
06:10	64.5	64.5	64.5	63	51.6	0	2	248	0.00	30.126 
06:15	64.7	64.7	64.7	63	51.8	0	2	248	0.00	30.134 
06:20	65.0	65.0	65.0	62	51.7	0	3	248	0.00	30.134 
06:25	65.2	65.2	65.2	62	51.8	0	1	248	0.00	30.134 
06:30	65.2	65.2	65.2	62	51.8	0	3	248	0.00	30.133 
06:35	65.2	65.2	65.2	62	51.8	1	4	248	0.00	30.133 
06:40	65.2	65.2	65.2	62	51.8	0	2	248	0.00	30.133 
06:45	65.2	65.2	65.2	62	51.8	0	2	248	0.00	30.139 
06:50	65.2	65.2	65.2	62	51.8	0	3	225	0.00	30.139 
06:55	65.0	65.0	65.0	62	51.7	0	2	225	0.00	30.139 
07:00	65.0	65.0	65.0	62	51.7	0	1	225	0.00	30.143 
07:05	65.0	65.0	65.0	62	51.7	0	4	248	0.00	30.143 
07:10	64.8	64.8	64.8	62	51.5	0	2	248	0.00	30.143 
07:15	64.7	64.7	64.7	63	51.8	0	1	248	0.00	30.149 
07:20	64.5	64.5	64.5	63	51.6	0	1	248	0.00	30.149 
07:25	64.3	64.3	64.3	64	51.9	0	1	248	0.00	30.149 
07:30	64.2	64.2	64.2	64	51.8	0	1	248	0.00	30.153 
07:35	64.2	64.2	64.2	64	51.8	0	1	248	0.00	30.153 
07:40	64.2	64.2	64.2	65	52.2	0	0	---	0.00	30.153 
07:45	64.2	64.2	64.2	65	52.2	0	2	292	0.00	30.156 
07:50	64.3	64.3	64.3	64	51.9	0	1	292	0.00	30.156 
07:55	64.8	64.8	64.8	63	51.9	0	4	292	0.00	30.156 
08:00	65.3	65.3	65.3	62	51.9	0	3	270	0.00	30.157 
08:05	66.0	66.0	66.0	61	52.2	0	1	45	0.00	30.157 
08:10	66.4	66.4	66.4	59	51.6	1	3	270	0.00	30.157 
08:15	66.9	66.9	66.9	58	51.6	0	2	270	0.00	30.163 
08:20	67.4	67.4	67.4	57	51.6	1	5	270	0.00	30.163 
08:25	67.9	67.9	67.9	55	51.1	1	4	270	0.00	30.163 
08:30	68.4	68.4	68.4	55	51.6	1	3	248	0.00	30.173 
08:35	68.8	68.8	68.8	55	52.0	0	3	270	0.00	30.173 
08:40	69.3	69.3	69.3	55	52.4	1	3	270	0.00	30.173 
08:45	69.8	69.8	69.8	54	52.4	0	3	270	0.00	30.171 
08:50	70.1	70.1	70.1	53	52.2	0	3	248	0.00	30.171 
08:55	70.8	70.8	70.8	53	52.8	0	1	248	0.00	30.171 
09:00	71.1	71.1	71.1	52	52.6	0	3	248	0.00	30.170 
09:05	71.6	71.6	71.6	52	53.0	1	3	90	0.00	30.170 
09:10	72.0	72.0	72.0	52	53.4	0	2	45	0.00	30.170 
09:15	72.3	72.3	72.3	50	52.6	1	2	45	0.00	30.171 
09:20	72.5	72.5	72.5	47	51.1	1	3	248	0.00	30.171 
09:25	72.7	72.7	72.7	47	51.3	1	3	248	0.00	30.171 
09:30	72.8	72.8	72.8	46	50.8	2	5	248	0.00	30.171 
09:35	73.0	73.0	73.0	46	51.0	1	4	248	0.00	30.171 
09:40	73.2	73.2	73.2	46	51.2	2	7	248	0.00	30.171 
09:45	73.5	73.5	73.5	46	51.4	2	5	248	0.00	30.173 
09:50	73.7	73.7	73.7	47	52.2	3	6	248	0.00	30.173 
09:55	73.9	73.9	73.9	49	53.5	2	6	248	0.00	30.173 
10:00	74.0	74.0	74.0	47	52.5	3	9	248	0.00	30.171 
10:05	74.4	74.4	74.4	45	51.7	3	7	248	0.00	30.171 
10:10	74.9	74.9	74.9	47	53.3	2	5	248	0.00	30.171 
10:15	75.1	75.1	77.6	44	51.7	2	5	248	0.00	30.170 
10:20	75.1	75.1	77.6	45	52.3	3	9	248	0.00	30.170 
10:25	75.3	75.3	77.7	46	53.1	3	7	248	0.00	30.170 
10:30	75.6	75.6	77.9	47	53.9	2	6	270	0.00	30.167 
10:35	76.1	76.1	78.0	46	53.8	2	5	270	0.00	30.167 
10:40	76.7	76.7	78.3	46	54.3	2	4	248	0.00	30.167 
10:45	76.8	76.8	78.3	45	53.8	2	7	248	0.00	30.167 
10:50	77.0	77.0	78.4	44	53.4	3	7	248	0.00	30.167 
10:55	77.4	77.4	78.6	45	54.4	2	5	248	0.00	30.167 
11:00	77.7	77.7	78.7	43	53.4	3	7	248	0.00	30.168 
11:05	78.1	78.1	79.1	46	55.6	2	9	0	0.00	30.168 
11:10	78.3	78.3	79.2	46	55.8	3	11	248	0.00	30.168 
11:15	78.6	78.6	79.2	43	54.2	4	10	270	0.00	30.171 
11:20	78.6	78.6	79.3	44	54.8	4	7	248	0.00	30.171 
11:25	79.2	79.2	79.8	45	56.0	4	7	248	0.00	30.171 
11:30	79.6	79.6	80.0	44	55.7	3	7	248	0.00	30.170 
11:35	79.8	79.8	80.0	43	55.3	5	12	248	0.00	30.170 
11:40	79.9	79.9	80.2	44	56.0	4	9	248	0.00	30.170 
11:45	80.3	80.3	80.3	42	55.1	4	9	270	0.00	30.170 
11:50	80.1	80.1	80.3	43	55.6	5	11	248	0.00	30.170 
11:55	80.3	80.3	80.4	43	55.7	4	10	248	0.00	30.170 
12:00	80.1	80.1	80.2	42	54.9	5	11	248	0.00	30.170 
12:05	80.3	80.3	80.5	44	56.4	4	10	270	0.00	30.170 
12:10	80.5	80.5	80.6	43	55.9	4	10	248	0.00	30.170 
12:15	80.5	80.5	80.4	41	54.6	6	16	248	0.00	30.172 
12:20	80.7	80.7	80.7	43	56.1	4	11	248	0.00	30.172 
12:25	80.7	80.7	80.7	43	56.1	6	12	270	0.00	30.172 
12:30	80.9	80.9	80.9	43	56.3	5	13	270	0.00	30.170 
12:35	81.4	81.4	81.3	43	56.7	4	9	248	0.00	30.170 
12:40	81.6	81.6	81.3	42	56.3	4	10	248	0.00	30.170 
12:45	81.4	81.4	81.3	43	56.7	5	13	270	0.00	30.169 
12:50	81.2	81.2	81.1	43	56.5	4	11	248	0.00	30.169 
12:55	80.7	80.7	80.8	44	56.7	5	12	270	0.00	30.169 
13:00	80.9	80.9	81.0	44	56.9	4	10	270	0.00	30.161 
13:05	81.4	81.4	81.3	43	56.7	4	12	248	0.00	30.161 
13:10	81.8	81.8	81.9	45	58.4	4	11	270	0.00	30.161 
13:15	82.2	82.2	82.0	43	57.4	4	11	248	0.00	30.161 
13:20	81.6	81.6	81.5	43	56.9	3	12	270	0.00	30.161 
13:25	81.4	81.4	81.3	43	56.7	4	11	270	0.00	30.161 
13:30	81.8	81.8	81.4	41	55.8	4	9	248	0.00	30.155 
13:35	81.4	81.4	81.2	42	56.1	5	11	248	0.00	30.155 
13:40	81.4	81.4	81.3	43	56.7	5	14	248	0.00	30.155 
13:45	81.8	81.8	81.5	42	56.4	7	14	270	0.00	30.155 
13:50	81.8	81.8	81.4	41	55.8	5	10	270	0.00	30.155 
13:55	81.4	81.4	80.9	39	54.0	5	14	270	0.00	30.155 
14:00	80.9	80.9	80.5	39	53.6	6	12	270	0.00	30.158 
14:05	80.9	80.9	80.6	40	54.3	6	13	248	0.00	30.158 
14:10	81.4	81.4	81.0	40	54.7	5	15	248	0.00	30.158 
14:15	82.2	82.2	81.6	40	55.4	4	12	248	0.00	30.156 
14:20	81.8	81.8	81.1	38	53.7	5	14	248	0.00	30.156 
14:25	81.1	81.1	80.5	38	53.1	6	14	270	0.00	30.156 
14:30	80.3	80.3	80.1	39	53.1	5	12	248	0.00	30.155 
14:35	80.3	80.3	80.1	40	53.8	5	14	248	0.00	30.155 
14:40	79.9	79.9	79.5	35	49.8	6	13	270	0.00	30.155 
14:45	79.8	79.8	79.4	35	49.7	4	12	270	0.00	30.157 
14:50	79.8	79.8	79.5	36	50.4	2	7	248	0.00	30.157 
14:55	79.9	79.9	79.6	37	51.3	3	11	248	0.00	30.157 
15:00	79.9	79.9	79.8	39	52.7	3	11	248	0.00	30.155 
15:05	80.1	80.1	80.0	40	53.6	3	7	248	0.00	30.155 
15:10	81.1	81.1	80.9	42	55.8	3	6	248	0.00	30.155 
15:15	82.0	82.0	81.2	38	53.9	3	9	248	0.00	30.142 
15:20	82.2	82.2	81.3	37	53.3	3	7	270	0.00	30.142 
15:25	82.4	82.4	81.6	38	54.2	3	10	248	0.00	30.142 
15:30	82.4	82.4	81.7	39	54.9	3	9	248	0.00	30.142 
15:35	81.8	81.8	81.1	38	53.7	4	10	248	0.00	30.142 
15:40	81.6	81.6	81.1	40	54.9	4	12	248	0.00	30.142 
15:45	82.0	82.0	81.3	39	54.6	4	12	270	0.00	30.139 
15:50	82.6	82.6	81.8	39	55.1	3	6	292	0.00	30.139 
15:55	82.4	82.4	81.7	39	54.9	3	7	248	0.00	30.139 
16:00	81.4	81.4	81.0	40	54.7	3	10	270	0.00	30.131 
16:05	81.1	81.1	80.7	40	54.5	3	9	248	0.00	30.131 
16:10	81.2	81.2	81.1	43	56.5	2	9	248	0.00	30.131 
16:15	81.4	81.4	81.0	40	54.7	3	11	248	0.00	30.125 
16:20	81.6	81.6	81.5	43	56.9	1	5	270	0.00	30.125 
16:25	81.2	81.2	81.0	42	55.9	3	9	248	0.00	30.125 
16:30	80.7	80.7	80.7	43	56.1	1	5	112	0.00	30.121 
16:35	81.2	81.2	81.0	42	55.9	2	7	270	0.00	30.121 
16:40	82.0	82.0	81.5	40	55.3	3	7	248	0.00	30.121 
16:45	82.4	82.4	81.7	39	54.9	3	7	248	0.00	30.109 
16:50	82.2	82.2	81.7	41	56.1	3	7	248	0.00	30.109 
16:55	82.2	82.2	81.9	42	56.8	3	7	90	0.00	30.109 
17:00	82.0	82.0	81.5	40	55.3	2	6	68	0.00	30.109 
17:05	81.8	81.8	81.1	38	53.7	3	10	248	0.00	30.109 
17:10	82.0	82.0	81.3	39	54.6	2	9	248	0.00	30.109 
17:15	82.4	82.4	81.4	37	53.5	3	13	248	0.00	30.107 
17:20	82.6	82.6	81.7	38	54.4	2	7	248	0.00	30.107 
17:25	82.8	82.8	81.9	38	54.6	3	10	248	0.00	30.107 
17:30	82.6	82.6	81.5	36	52.9	3	8	270	0.00	30.102 
17:35	83.2	83.2	81.9	35	52.7	3	6	248	0.00	30.102 
17:40	83.4	83.4	82.2	36	53.6	3	9	270	0.00	30.102 
17:45	83.2	83.2	81.9	35	52.7	3	12	248	0.00	30.099 
17:50	83.2	83.2	81.8	34	51.9	5	11	270	0.00	30.099 
17:55	83.2	83.2	81.8	34	51.9	3	11	248	0.00	30.099 
18:00	83.2	83.2	81.9	35	52.7	3	6	248	0.00	30.096 
18:05	83.0	83.0	81.6	34	51.7	3	7	248	0.00	30.096 
18:10	83.0	83.0	81.4	32	50.1	4	10	270	0.00	30.096 
18:15	83.2	83.2	81.7	33	51.1	3	12	270	0.00	30.097 
18:20	83.0	83.0	81.5	33	50.9	3	10	248	0.00	30.097 
18:25	82.6	82.6	81.1	32	49.7	3	13	248	0.00	30.097 
18:30	82.6	82.6	80.9	30	48.0	5	14	248	0.00	30.097 
18:35	82.6	82.6	81.0	31	48.9	4	9	248	0.00	30.097 
18:40	82.4	82.4	80.9	31	48.7	4	9	248	0.00	30.097 
18:45	82.4	82.4	80.9	32	49.5	3	9	270	0.00	30.095 
18:50	82.2	82.2	80.8	32	49.4	3	9	270	0.00	30.095 
18:55	82.0	82.0	80.9	35	51.6	2	11	248	0.00	30.095 
19:00	81.8	81.8	80.8	35	51.4	2	6	248	0.00	30.094 
19:05	81.2	81.2	80.2	33	49.3	2	7	270	0.00	30.094 
19:10	81.1	81.1	80.1	33	49.2	3	11	248	0.00	30.094 
19:15	80.9	80.9	80.1	34	49.9	2	7	270	0.00	30.092 
19:20	80.5	80.5	79.9	35	50.3	2	7	270	0.00	30.092 
19:25	80.5	80.5	79.9	35	50.3	2	6	248	0.00	30.092 
19:30	80.3	80.3	79.8	36	50.9	1	4	270	0.00	30.091 
19:35	80.1	80.1	79.8	37	51.5	1	7	270	0.00	30.091 
19:40	79.8	79.8	79.6	37	51.2	1	5	270	0.00	30.091 
19:45	79.6	79.6	79.6	39	52.4	1	5	225	0.00	30.084 
19:50	79.2	79.2	79.3	39	52.1	0	3	248	0.00	30.084 
19:55	78.8	78.8	79.2	40	52.4	0	1	248	0.00	30.084 
20:00	78.6	78.6	79.0	40	52.2	0	2	248	0.00	30.082 
20:05	78.3	78.3	78.9	41	52.6	0	3	90	0.00	30.082 
20:10	77.9	77.9	78.8	42	52.9	0	2	90	0.00	30.082 
20:15	77.7	77.7	78.7	42	52.8	0	3	90	0.00	30.082 
20:20	77.4	77.4	78.6	43	53.1	0	1	90	0.00	30.082 
20:25	76.8	76.8	78.3	43	52.6	0	1	90	0.00	30.082 
20:30	76.5	76.5	78.2	44	52.9	0	1	90	0.00	30.086 
20:35	76.0	76.0	78.0	44	52.5	0	0	---	0.00	30.086 
20:40	75.6	75.6	77.8	44	52.1	0	1	90	0.00	30.086 
20:45	75.4	75.4	77.7	45	52.6	0	0	---	0.00	30.092 
20:50	75.1	75.1	77.7	46	52.9	0	0	---	0.00	30.092 
20:55	74.7	74.7	74.7	46	52.5	0	0	---	0.00	30.092 
21:00	74.6	74.6	74.6	46	52.4	0	1	90	0.00	30.093 
21:05	74.4	74.4	74.4	46	52.3	0	1	90	0.00	30.093 
21:10	74.0	74.0	74.0	45	51.3	0	1	90	0.00	30.093 
21:15	74.0	74.0	74.0	44	50.7	0	1	90	0.00	30.098 
21:20	73.9	73.9	73.9	43	50.0	0	1	90	0.00	30.098 
21:25	73.7	73.7	73.7	43	49.8	0	1	90	0.00	30.098 
21:30	73.5	73.5	73.5	43	49.6	0	1	90	0.00	30.105 
21:35	73.3	73.3	73.3	42	48.8	0	1	90	0.00	30.105 
21:40	73.3	73.3	73.3	41	48.2	0	1	90	0.00	30.105 
21:45	73.2	73.2	73.2	42	48.7	0	1	90	0.00	30.108 
21:50	73.0	73.0	73.0	42	48.5	0	0	---	0.00	30.108 
21:55	72.8	72.8	72.8	42	48.4	0	1	90	0.00	30.108 
22:00	72.5	72.5	72.5	43	48.7	0	1	90	0.00	30.110 
22:05	72.3	72.3	72.3	42	47.9	0	1	90	0.00	30.110 
22:10	72.1	72.1	72.1	43	48.4	0	1	90	0.00	30.110 
22:15	72.0	72.0	72.0	43	48.3	0	1	90	0.00	30.108 
22:20	71.8	71.8	71.8	44	48.7	0	0	---	0.00	30.108 
22:25	71.5	71.5	71.5	44	48.4	0	1	90	0.00	30.108 
22:30	71.3	71.3	71.3	45	48.8	0	1	90	0.00	30.111 
22:35	70.9	70.9	70.9	46	49.1	0	1	90	0.00	30.111 
22:40	70.8	70.8	70.8	46	49.0	0	1	90	0.00	30.111 
22:45	70.6	70.6	70.6	47	49.4	0	1	90	0.00	30.108 
22:50	70.4	70.4	70.4	47	49.2	0	1	90	0.00	30.108 
22:55	70.3	70.3	70.3	47	49.1	0	1	90	0.00	30.108 
23:00	70.4	70.4	70.4	47	49.2	0	2	270	0.00	30.109 
23:05	70.4	70.4	70.4	48	49.8	0	2	270	0.00	30.109 
23:10	70.6	70.6	70.6	47	49.4	0	1	270	0.00	30.109 
23:15	70.8	70.8	70.8	46	49.0	0	3	338	0.00	30.103 
23:20	71.1	71.1	71.1	46	49.3	0	2	338	0.00	30.103 
23:25	71.3	71.3	71.3	45	48.8	1	2	112	0.00	30.103 
23:30	71.3	71.3	71.3	45	48.8	0	1	112	0.00	30.102 
23:35	71.3	71.3	71.3	45	48.8	0	2	112	0.00	30.102 
23:40	71.1	71.1	71.1	46	49.3	0	2	112	0.00	30.102 
23:45	71.1	71.1	71.1	46	49.3	1	3	135	0.00	30.104 
23:50	71.1	71.1	71.1	45	48.7	0	2	90	0.00	30.104 
23:55	71.1	71.1	71.1	45	48.7	0	3	90	0.00	30.104 

CoCoRaHS
IN-AL-39
A2 Web Hosting
Creative Commons License
GoDaddy
search engine by freefind advanced

loaded 2018-11-15 15:50:11 • last modified 2010-11-18 10:43:29
Privacy PolicyDisclaimer
• wx.awcolley.com is powered by PmWiki v.2002016 •
• all content (unless otherwise noted) © 2018 A W Colley